Time;durP1;ratioP1;P1;durP2;ratioP2;P2;SDS_P1;SDS_P2;PMS_P1;PMS_P2;Temp;Humidity;BMP_temperature;BMP_pressure;BME280_temperature;BME280_humidity;BME280_pressure;Samples;Min_cycle;Max_cycle;Signal;HPM_P1;HPM_P2
2023/07/24 00:00:40;;;;;;;;;;;;;;;19.35;100.00;99870.19;5094108;28;1976;-69
2023/07/24 00:03:06;;;;;;;;;;;;;;;19.33;100.00;99867.06;5094021;28;927;-69
2023/07/24 00:05:34;;;;;;;;;;;;;;;19.30;100.00;99870.81;5094098;28;936;-69
2023/07/24 00:08:00;;;;;;;;;;;;;;;19.26;100.00;99868.16;5093975;28;884;-69
2023/07/24 00:10:26;;;;;;;;;;;;;;;19.23;100.00;99860.66;5094096;28;838;-69
2023/07/24 00:12:53;;;;;;;;;;;;;;;19.25;100.00;99863.03;5093795;28;848;-69
2023/07/24 00:15:20;;;;;;;;;;;;;;;19.22;100.00;99863.94;5093863;28;822;-69
2023/07/24 00:17:47;;;;;;;;;;;;;;;19.20;100.00;99855.97;5094029;28;849;-69
2023/07/24 00:20:13;;;;;;;;;;;;;;;19.18;100.00;99858.47;5093718;28;1890;-69
2023/07/24 00:22:40;;;;;;;;;;;;;;;19.10;100.00;99860.00;5093756;28;811;-69
2023/07/24 00:25:08;;;;;;;;;;;;;;;19.01;100.00;99854.34;5093698;28;872;-69
2023/07/24 00:27:35;;;;;;;;;;;;;;;18.95;100.00;99863.34;5075336;28;1251;-69
2023/07/24 00:30:03;;;;;;;;;;;;;;;18.90;100.00;99857.53;5075347;28;1405;-69
2023/07/24 00:32:29;;;;;;;;;;;;;;;18.83;100.00;99858.59;5093425;28;845;-69
2023/07/24 00:34:57;;;;;;;;;;;;;;;18.75;100.00;99863.69;5093483;28;821;-68
2023/07/24 00:37:24;;;;;;;;;;;;;;;18.64;100.00;99856.91;5093431;28;881;-69
2023/07/24 00:39:50;;;;;;;;;;;;;;;18.56;100.00;99862.78;5093378;28;1890;-69
2023/07/24 00:42:17;;;;;;;;;;;;;;;18.50;100.00;99870.19;5093409;28;794;-69
2023/07/24 00:44:45;;;;;;;;;;;;;;;18.44;100.00;99862.84;5093239;28;924;-69
2023/07/24 00:47:12;;;;;;;;;;;;;;;18.40;100.00;99871.34;5093254;28;1330;-69
2023/07/24 00:49:39;;;;;;;;;;;;;;;18.38;100.00;99873.81;5093199;28;845;-69
2023/07/24 00:52:07;;;;;;;;;;;;;;;18.39;100.00;99874.59;5093124;28;897;-68
2023/07/24 00:54:34;;;;;;;;;;;;;;;18.36;100.00;99879.09;5093095;28;874;-69
2023/07/24 00:57:03;;;;;;;;;;;;;;;18.30;100.00;99878.88;5093167;28;873;-69
2023/07/24 00:59:30;;;;;;;;;;;;;;;18.26;100.00;99886.63;5092857;28;1910;-69
2023/07/24 01:01:57;;;;;;;;;;;;;;;18.35;100.00;99881.13;5092932;28;861;-68
2023/07/24 01:04:23;;;;;;;;;;;;;;;18.42;100.00;99882.09;5092796;28;886;-69
2023/07/24 01:06:50;;;;;;;;;;;;;;;18.45;100.00;99881.19;5092810;28;869;-68
2023/07/24 01:09:16;;;;;;;;;;;;;;;18.43;100.00;99872.47;5074664;28;1352;-69
2023/07/24 01:11:56;;;;;;;;;;;;;;;18.41;100.00;99878.50;5074580;28;1289;-69
2023/07/24 01:14:26;;;;;;;;;;;;;;;18.43;100.00;99864.84;5092732;28;853;-69
2023/07/24 01:16:54;;;;;;;;;;;;;;;18.44;100.00;99871.25;5092655;28;778;-69
2023/07/24 01:19:52;;;;;;;;;;;;;;;18.43;100.00;99876.03;5092581;28;1881;-69
2023/07/24 01:22:27;;;;;;;;;;;;;;;18.38;100.00;99873.06;5047524;28;1267;-69
2023/07/24 01:25:13;;;;;;;;;;;;;;;18.28;100.00;99869.38;5092128;28;1015;-69
2023/07/24 01:27:44;;;;;;;;;;;;;;;18.19;100.00;99870.09;5092596;28;822;-69
2023/07/24 01:30:11;;;;;;;;;;;;;;;18.15;100.00;99864.63;5092329;28;862;-69
2023/07/24 01:32:39;;;;;;;;;;;;;;;18.19;100.00;99874.91;5092508;28;877;-69
2023/07/24 01:35:06;;;;;;;;;;;;;;;18.18;100.00;99860.16;5092355;28;846;-69
2023/07/24 01:37:34;;;;;;;;;;;;;;;18.15;100.00;99867.41;5092354;28;854;-69
2023/07/24 01:40:02;;;;;;;;;;;;;;;18.09;100.00;99868.44;5092230;28;1885;-69
2023/07/24 01:42:29;;;;;;;;;;;;;;;18.00;100.00;99869.16;5092635;28;907;-69
2023/07/24 01:44:56;;;;;;;;;;;;;;;17.94;100.00;99854.97;5092222;28;884;-69
2023/07/24 01:47:23;;;;;;;;;;;;;;;17.95;100.00;99858.56;5070607;28;1399;-69
2023/07/24 01:49:50;;;;;;;;;;;;;;;17.95;100.00;99861.34;5071950;28;857;-69
2023/07/24 01:52:17;;;;;;;;;;;;;;;17.93;100.00;99855.44;5071987;28;913;-69
2023/07/24 01:54:44;;;;;;;;;;;;;;;17.91;100.00;99864.25;5071901;28;818;-68
2023/07/24 01:57:11;;;;;;;;;;;;;;;17.90;100.00;99867.50;5071967;28;881;-68
2023/07/24 01:59:38;;;;;;;;;;;;;;;17.90;100.00;99859.09;5071752;28;1906;-68
2023/07/24 02:02:05;;;;;;;;;;;;;;;17.89;100.00;99866.72;5071815;28;836;-68
2023/07/24 02:04:32;;;;;;;;;;;;;;;17.91;100.00;99860.69;5071978;28;807;-68
2023/07/24 02:06:59;;;;;;;;;;;;;;;17.92;100.00;99867.81;5071759;28;798;-68
2023/07/24 02:09:25;;;;;;;;;;;;;;;17.88;100.00;99872.75;5071808;28;814;-68
2023/07/24 02:11:52;;;;;;;;;;;;;;;17.89;100.00;99866.72;5071728;28;838;-68
2023/07/24 02:14:20;;;;;;;;;;;;;;;17.93;100.00;99863.81;5070595;28;885;-68
2023/07/24 02:16:47;;;;;;;;;;;;;;;17.99;100.00;99867.59;5071659;28;848;-69
2023/07/24 02:19:14;;;;;;;;;;;;;;;18.04;100.00;99869.03;5071663;28;1885;-68
2023/07/24 02:21:41;;;;;;;;;;;;;;;18.00;100.00;99857.19;5071684;28;857;-68
2023/07/24 02:24:08;;;;;;;;;;;;;;;17.97;100.00;99855.31;5071642;28;852;-68
2023/07/24 02:26:35;;;;;;;;;;;;;;;17.93;100.00;99861.78;5070349;28;1449;-68
2023/07/24 02:29:02;;;;;;;;;;;;;;;17.94;100.00;99862.56;5071539;28;824;-68
2023/07/24 02:31:29;;;;;;;;;;;;;;;17.97;100.00;99863.69;5070304;28;1199;-68
2023/07/24 02:33:55;;;;;;;;;;;;;;;17.93;100.00;99856.19;5071788;28;873;-69
2023/07/24 02:36:22;;;;;;;;;;;;;;;17.86;100.00;99859.25;5072217;28;912;-68
2023/07/24 02:38:49;;;;;;;;;;;;;;;17.76;100.00;99861.13;5075492;28;879;-68
2023/07/24 02:41:16;;;;;;;;;;;;;;;17.67;100.00;99866.63;5075266;28;1885;-68
2023/07/24 02:43:43;;;;;;;;;;;;;;;17.61;100.00;99857.25;5075451;28;865;-69
2023/07/24 02:46:10;;;;;;;;;;;;;;;17.57;100.00;99853.78;5075552;28;925;-69
2023/07/24 02:48:37;;;;;;;;;;;;;;;17.55;100.00;99850.66;5093340;28;1330;-68
2023/07/24 02:51:03;;;;;;;;;;;;;;;17.53;100.00;99850.34;5095521;28;913;-69
2023/07/24 02:53:31;;;;;;;;;;;;;;;17.51;100.00;99853.56;5095447;28;916;-68
2023/07/24 02:55:58;;;;;;;;;;;;;;;17.48;100.00;99857.28;5095558;28;888;-68
2023/07/24 02:58:25;;;;;;;;;;;;;;;17.46;100.00;99859.72;5077194;28;1290;-68
2023/07/24 03:00:52;;;;;;;;;;;;;;;17.44;100.00;99853.81;5095316;28;1917;-68
2023/07/24 03:03:19;;;;;;;;;;;;;;;17.42;100.00;99858.28;5095210;28;911;-69
2023/07/24 03:05:45;;;;;;;;;;;;;;;17.41;100.00;99863.09;5095285;28;837;-69
2023/07/24 03:08:13;;;;;;;;;;;;;;;17.42;100.00;99866.66;5095054;28;901;-69
2023/07/24 03:10:43;;;;;;;;;;;;;;;17.44;100.00;99861.41;5095389;28;862;-69
2023/07/24 03:13:10;;;;;;;;;;;;;;;17.48;100.00;99864.88;5076897;28;1174;-69
2023/07/24 03:15:35;;;;;;;;;;;;;;;17.57;100.00;99864.97;5094974;28;826;-69
2023/07/24 03:18:02;;;;;;;;;;;;;;;17.65;100.00;99865.53;5095089;28;830;-69
2023/07/24 03:20:29;;;;;;;;;;;;;;;17.67;100.00;99863.84;5094789;28;2001;-69
2023/07/24 03:22:55;;;;;;;;;;;;;;;17.67;100.00;99857.47;5094972;28;889;-69
2023/07/24 03:25:23;;;;;;;;;;;;;;;17.67;100.00;99858.25;5094816;28;889;-68
2023/07/24 03:27:50;;;;;;;;;;;;;;;17.71;100.00;99864.50;5076577;28;933;-69
2023/07/24 03:30:17;;;;;;;;;;;;;;;17.74;100.00;99866.38;5094699;28;829;-69
2023/07/24 03:32:44;;;;;;;;;;;;;;;17.78;100.00;99863.47;5094810;28;826;-69
2023/07/24 03:35:11;;;;;;;;;;;;;;;17.84;100.00;99856.13;5094576;28;874;-69
2023/07/24 03:37:38;;;;;;;;;;;;;;;17.90;100.00;99864.69;5094642;28;870;-69
2023/07/24 03:40:05;;;;;;;;;;;;;;;17.97;100.00;99867.28;5094528;28;1965;-69
2023/07/24 03:42:32;;;;;;;;;;;;;;;18.06;100.00;99864.56;5094479;28;881;-69
2023/07/24 03:44:59;;;;;;;;;;;;;;;18.20;100.00;99862.47;5094613;28;862;-69
2023/07/24 03:47:26;;;;;;;;;;;;;;;18.40;100.00;99867.78;5094288;28;1427;-69
2023/07/24 03:49:53;;;;;;;;;;;;;;;18.65;100.00;99869.66;5093977;28;823;-69
2023/07/24 03:52:20;;;;;;;;;;;;;;;18.84;100.00;99871.38;5094379;28;878;-69
2023/07/24 03:54:48;;;;;;;;;;;;;;;18.99;100.00;99871.63;5076137;28;1225;-69
2023/07/24 03:57:14;;;;;;;;;;;;;;;19.20;100.00;99872.00;5094228;28;818;-69
2023/07/24 03:59:41;;;;;;;;;;;;;;;19.32;100.00;99879.53;5094126;28;1941;-69
2023/07/24 04:02:09;;;;;;;;;;;;;;;19.41;100.00;99878.78;5094112;28;874;-69
2023/07/24 04:04:36;;;;;;;;;;;;;;;19.51;100.00;99880.38;5075963;28;1216;-69
2023/07/24 04:07:02;;;;;;;;;;;;;;;19.69;100.00;99877.63;5093963;28;846;-69
2023/07/24 04:09:29;;;;;;;;;;;;;;;19.82;100.00;99879.56;5094038;28;837;-69
2023/07/24 04:11:56;;;;;;;;;;;;;;;19.92;100.00;99875.53;5093940;28;864;-69
2023/07/24 04:14:23;;;;;;;;;;;;;;;20.03;100.00;99869.47;5093974;28;889;-69
2023/07/24 04:16:50;;;;;;;;;;;;;;;20.15;100.00;99877.72;5093957;28;904;-69
2023/07/24 04:19:17;;;;;;;;;;;;;;;20.30;100.00;99872.28;5094091;28;1948;-69
2023/07/24 04:21:44;;;;;;;;;;;;;;;20.46;100.00;99876.00;5093724;28;869;-69
2023/07/24 04:24:11;;;;;;;;;;;;;;;20.59;100.00;99879.47;5093797;28;861;-69
2023/07/24 04:26:39;;;;;;;;;;;;;;;20.72;100.00;99880.06;5093732;28;852;-69
2023/07/24 04:29:06;;;;;;;;;;;;;;;20.86;100.00;99877.84;5093569;28;809;-69
2023/07/24 04:31:33;;;;;;;;;;;;;;;20.99;100.00;99884.84;5093535;28;851;-69
2023/07/24 04:33:59;;;;;;;;;;;;;;;21.16;100.00;99887.28;5093550;28;829;-69
2023/07/24 04:36:26;;;;;;;;;;;;;;;21.30;100.00;99889.41;5093510;28;802;-69
2023/07/24 04:38:53;;;;;;;;;;;;;;;21.48;100.00;99894.19;5093458;28;874;-69
2023/07/24 04:41:20;;;;;;;;;;;;;;;21.65;100.00;99894.59;5093519;28;1957;-69
2023/07/24 04:43:47;;;;;;;;;;;;;;;21.78;100.00;99900.75;5093306;28;873;-69
2023/07/24 04:46:14;;;;;;;;;;;;;;;21.90;100.00;99898.22;5093567;28;954;-69
2023/07/24 04:48:41;;;;;;;;;;;;;;;22.05;100.00;99901.84;5093334;28;1231;-69
2023/07/24 04:51:08;;;;;;;;;;;;;;;22.22;100.00;99900.19;5093222;28;888;-69
2023/07/24 04:53:35;;;;;;;;;;;;;;;22.35;100.00;99899.94;5093128;28;884;-69
2023/07/24 04:56:02;;;;;;;;;;;;;;;22.48;100.00;99887.63;5093171;28;838;-69
2023/07/24 04:58:29;;;;;;;;;;;;;;;22.55;100.00;99899.31;5092884;28;815;-69
2023/07/24 05:00:55;;;;;;;;;;;;;;;22.61;100.00;99893.75;5073910;28;2018;-69
2023/07/24 05:03:23;;;;;;;;;;;;;;;22.79;100.00;99898.47;5092918;28;810;-69
2023/07/24 05:05:58;;;;;;;;;;;;;;;22.94;100.00;99895.66;5092959;28;873;-70
2023/07/24 05:08:25;;;;;;;;;;;;;;;22.99;100.00;99904.19;5092848;28;817;-69
2023/07/24 05:10:55;;;;;;;;;;;;;;;23.08;100.00;99905.38;5092880;28;861;-70
2023/07/24 05:13:21;;;;;;;;;;;;;;;23.18;100.00;99906.84;5092833;28;1160;-70
2023/07/24 05:15:48;;;;;;;;;;;;;;;23.35;100.00;99907.09;5092819;28;829;-69
2023/07/24 05:18:15;;;;;;;;;;;;;;;23.52;100.00;99918.66;5092688;28;837;-69
2023/07/24 05:20:51;;;;;;;;;;;;;;;23.64;100.00;99914.69;5092468;28;1890;-69
2023/07/24 05:23:17;;;;;;;;;;;;;;;23.73;100.00;99923.06;5092713;28;813;-70
2023/07/24 05:25:44;;;;;;;;;;;;;;;23.86;100.00;99922.75;5092494;28;831;-69
2023/07/24 05:28:11;;;;;;;;;;;;;;;24.01;100.00;99922.72;5092594;28;870;-70
2023/07/24 05:30:38;;;;;;;;;;;;;;;24.13;100.00;99921.59;5092484;28;901;-70
2023/07/24 05:33:05;;;;;;;;;;;;;;;24.36;100.00;99905.66;5092463;28;822;-70
2023/07/24 05:35:32;;;;;;;;;;;;;;;24.43;100.00;99913.72;5092359;28;814;-70
2023/07/24 05:37:59;;;;;;;;;;;;;;;24.47;100.00;99924.78;5092347;28;854;-70
2023/07/24 05:40:26;;;;;;;;;;;;;;;24.52;100.00;99926.19;5092300;28;1945;-69
2023/07/24 05:42:53;;;;;;;;;;;;;;;24.43;100.00;99930.69;5092270;28;889;-70
2023/07/24 05:45:19;;;;;;;;;;;;;;;24.47;100.00;99933.28;5092226;28;870;-70
2023/07/24 05:47:45;;;;;;;;;;;;;;;24.53;100.00;99922.06;5070457;28;1479;-70
2023/07/24 05:50:13;;;;;;;;;;;;;;;24.63;100.00;99920.66;5071970;28;837;-70
2023/07/24 05:52:40;;;;;;;;;;;;;;;24.73;100.00;99921.25;5071988;28;901;-70
2023/07/24 05:55:07;;;;;;;;;;;;;;;24.91;100.00;99920.16;5071971;28;818;-69
2023/07/24 05:57:34;;;;;;;;;;;;;;;25.05;100.00;99920.03;5071868;28;846;-70
2023/07/24 06:00:01;;;;;;;;;;;;;;;25.35;100.00;99916.97;5071887;28;1918;-70
2023/07/24 06:02:28;;;;;;;;;;;;;;;25.77;100.00;99921.09;5071985;28;897;-70
2023/07/24 06:04:54;;;;;;;;;;;;;;;26.04;100.00;99924.63;5071812;28;846;-70
2023/07/24 06:07:21;;;;;;;;;;;;;;;26.13;100.00;99915.91;5071801;28;807;-70
2023/07/24 06:09:47;;;;;;;;;;;;;;;26.36;100.00;99916.00;5071904;28;885;-70
2023/07/24 06:12:14;;;;;;;;;;;;;;;26.61;100.00;99908.63;5071505;28;834;-70
2023/07/24 06:14:41;;;;;;;;;;;;;;;26.78;100.00;99902.97;5071862;28;771;-70
2023/07/24 06:17:08;;;;;;;;;;;;;;;26.76;100.00;99899.91;5071789;28;818;-68
2023/07/24 06:19:35;;;;;;;;;;;;;;;26.93;100.00;99903.53;5072123;28;1959;-70
2023/07/24 06:22:01;;;;;;;;;;;;;;;27.07;100.00;99893.97;5072012;28;903;-70
2023/07/24 06:24:28;;;;;;;;;;;;;;;27.13;100.00;99890.38;5070409;28;1424;-70
2023/07/24 06:26:55;;;;;;;;;;;;;;;27.15;100.00;99885.75;5070529;28;917;-71
2023/07/24 06:29:22;;;;;;;;;;;;;;;27.32;100.00;99885.00;5071647;28;857;-69
2023/07/24 06:31:49;;;;;;;;;;;;;;;27.53;100.00;99888.31;5071704;28;834;-67
2023/07/24 06:34:16;;;;;;;;;;;;;;;27.86;100.00;99887.47;5071863;28;787;-67
2023/07/24 06:36:43;;;;;;;;;;;;;;;28.05;100.00;99879.91;5071579;28;945;-68
2023/07/24 06:39:09;;;;;;;;;;;;;;;28.25;100.00;99884.50;5071497;28;825;-65
2023/07/24 06:41:35;;;;;;;;;;;;;;;28.49;100.00;99888.78;5071703;28;1871;-65
2023/07/24 06:44:02;;;;;;;;;;;;;;;29.11;100.00;99886.28;5071965;28;1171;-66
2023/07/24 06:46:29;;;;;;;;;;;;;;;29.91;100.00;99889.94;5071913;28;1415;-67
2023/07/24 06:48:56;;;;;;;;;;;;;;;30.90;100.00;99892.50;5073677;28;1140;-65
2023/07/24 06:51:23;;;;;;;;;;;;;;;31.95;95.35;99884.66;5091845;28;905;-65
2023/07/24 06:53:49;;;;;;;;;;;;;;;33.10;89.53;99882.41;5091790;28;850;-66
2023/07/24 06:56:16;;;;;;;;;;;;;;;34.03;79.86;99883.81;5091734;28;1181;-67
2023/07/24 06:58:43;;;;;;;;;;;;;;;34.67;71.78;99882.94;5091849;28;855;-67
2023/07/24 07:01:10;;;;;;;;;;;;;;;35.43;67.47;99878.59;5091565;28;1902;-66
2023/07/24 07:03:36;;;;;;;;;;;;;;;36.18;63.70;99878.28;5091701;28;832;-67
2023/07/24 07:06:03;;;;;;;;;;;;;;;36.26;62.37;99875.38;5091563;28;799;-68
2023/07/24 07:08:30;;;;;;;;;;;;;;;36.37;61.88;99878.56;5091477;28;896;-66
2023/07/24 07:11:00;;;;;;;;;;;;;;;36.07;60.40;99879.44;5091348;28;827;-66
2023/07/24 07:13:27;;;;;;;;;;;;;;;35.62;59.43;99880.31;5091575;28;791;-67
2023/07/24 07:15:55;;;;;;;;;;;;;;;35.72;59.89;99873.44;5091334;28;842;-66
2023/07/24 07:18:22;;;;;;;;;;;;;;;36.20;58.43;99875.59;5091371;28;871;-66
2023/07/24 07:20:51;;;;;;;;;;;;;;;36.56;57.11;99877.31;5091245;28;1881;-69
2023/07/24 07:23:18;;;;;;;;;;;;;;;36.06;54.57;99880.00;5091743;28;802;-67
2023/07/24 07:25:49;;;;;;;;;;;;;;;36.29;55.06;99869.19;5094737;28;817;-65
2023/07/24 07:28:16;;;;;;;;;;;;;;;36.11;56.15;99861.78;5095154;28;833;-65
2023/07/24 07:30:43;;;;;;;;;;;;;;;36.17;56.06;99859.50;5094671;28;767;-65
2023/07/24 07:33:10;;;;;;;;;;;;;;;36.23;54.41;99857.13;5094709;28;817;-65
2023/07/24 07:35:37;;;;;;;;;;;;;;;35.78;55.24;99865.38;5094735;28;823;-64
2023/07/24 07:38:03;;;;;;;;;;;;;;;35.68;55.11;99863.66;5094574;28;863;-65
2023/07/24 07:40:30;;;;;;;;;;;;;;;36.02;54.42;99857.41;5094622;28;1906;-67
2023/07/24 07:42:57;;;;;;;;;;;;;;;36.48;51.91;99850.69;5094460;28;897;-68
2023/07/24 07:45:24;;;;;;;;;;;;;;;36.46;51.31;99844.75;5094584;28;888;-67
2023/07/24 07:47:53;;;;;;;;;;;;;;;36.72;50.36;99843.47;5094111;28;1288;-68
2023/07/24 07:50:20;;;;;;;;;;;;;;;36.12;47.79;99843.94;5094395;28;857;-65
2023/07/24 07:52:51;;;;;;;;;;;;;;;36.13;47.82;99836.13;5094433;28;877;-71
2023/07/24 07:55:18;;;;;;;;;;;;;;;36.52;44.90;99836.66;5094196;28;838;-67
2023/07/24 07:57:45;;;;;;;;;;;;;;;36.56;43.35;99839.91;5094319;28;853;-68
2023/07/24 08:00:12;;;;;;;;;;;;;;;36.77;39.01;99831.72;5094080;28;1906;-66
2023/07/24 08:02:39;;;;;;;;;;;;;;;36.62;33.99;99837.59;5094348;28;975;-69
2023/07/24 08:05:10;;;;;;;;;;;;;;;36.60;32.40;99837.38;5094026;28;846;-68
2023/07/24 08:07:37;;;;;;;;;;;;;;;36.57;31.20;99835.66;5094136;28;865;-69
2023/07/24 08:10:04;;;;;;;;;;;;;;;36.45;30.88;99837.50;5093991;28;934;-71
2023/07/24 08:12:31;;;;;;;;;;;;;;;36.56;30.72;99832.03;5094062;28;833;-69
2023/07/24 08:14:57;;;;;;;;;;;;;;;36.48;30.42;99824.78;5094106;28;805;-70
2023/07/24 08:17:24;;;;;;;;;;;;;;;36.38;31.80;99825.44;5093861;28;881;-69
2023/07/24 08:19:51;;;;;;;;;;;;;;;35.81;32.12;99816.69;5093910;28;1886;-69
2023/07/24 08:22:19;;;;;;;;;;;;;;;35.95;32.36;99812.19;5093843;28;924;-68
2023/07/24 08:24:46;;;;;;;;;;;;;;;36.06;33.19;99820.41;5093701;28;856;-71
2023/07/24 08:27:13;;;;;;;;;;;;;;;36.35;32.35;99815.06;5093650;28;896;-68
2023/07/24 08:29:40;;;;;;;;;;;;;;;36.73;32.70;99819.09;5093714;28;876;-70
2023/07/24 08:32:06;;;;;;;;;;;;;;;36.31;34.41;99808.97;5093622;28;881;-71
2023/07/24 08:34:33;;;;;;;;;;;;;;;35.86;34.49;99815.69;5093744;28;818;-73
2023/07/24 08:37:00;;;;;;;;;;;;;;;35.46;34.19;99817.09;5093620;28;901;-70
2023/07/24 08:39:27;;;;;;;;;;;;;;;35.76;35.07;99810.56;5093407;28;1885;-73
2023/07/24 08:41:54;;;;;;;;;;;;;;;35.87;33.75;99812.25;5075336;28;2292;-66
2023/07/24 08:44:24;;;;;;;;;;;;;;;35.80;34.22;99803.63;5093321;28;849;-68
2023/07/24 08:46:51;;;;;;;;;;;;;;;35.79;33.64;99802.88;5093007;28;1348;-71
2023/07/24 08:49:18;;;;;;;;;;;;;;;36.13;34.43;99804.47;5093387;28;866;-69
2023/07/24 08:51:45;;;;;;;;;;;;;;;36.52;32.59;99794.25;5074977;28;1330;-73
2023/07/24 08:54:12;;;;;;;;;;;;;;;36.04;32.78;99791.47;5093135;28;822;-68
2023/07/24 08:56:40;;;;;;;;;;;;;;;35.82;33.22;99795.94;5093040;28;885;-68
2023/07/24 08:59:07;;;;;;;;;;;;;;;35.95;32.96;99795.72;5093091;28;1271;-69
2023/07/24 09:04:37;;;;;;;;;;;;;;;35.96;32.49;99788.59;5092245;28;652;-68
2023/07/24 09:07:04;;;;;;;;;;;;;;;36.09;32.86;99801.22;5092825;28;830;-68
2023/07/24 09:09:31;;;;;;;;;;;;;;;36.00;32.61;99796.84;5092949;28;802;-69
2023/07/24 09:12:00;;;;;;;;;;;;;;;35.84;32.22;99801.13;5092863;28;913;-68
2023/07/24 09:14:27;;;;;;;;;;;;;;;35.83;32.70;99802.47;5092790;28;894;-68
2023/07/24 09:46:53;;;;;;;;;;;;;;;34.37;35.79;99780.31;5945748;23;1504;-56
2023/07/24 09:49:21;;;;;;;;;;;;;;;34.28;35.30;99775.16;5032125;28;818;-56
2023/07/24 09:51:47;;;;;;;;;;;;;;;34.38;35.49;99769.63;5032136;28;842;-55
2023/07/24 09:54:24;;;;;;;;;;;;;;;34.15;35.36;99770.34;5032082;28;815;-53
2023/07/24 09:56:52;;;;;;;;;;;;;;;34.01;35.47;99763.94;5031983;28;870;-55
2023/07/24 09:59:19;;;;;;;;;;;;;;;34.27;35.37;99762.13;5032071;28;865;-56
2023/07/24 10:01:47;;;;;;;;;;;;;;;34.43;35.08;99760.06;5031876;28;1985;-55
2023/07/24 10:04:15;;;;;;;;;;;;;;;34.53;34.79;99750.31;5031868;28;917;-55
2023/07/24 10:06:42;;;;;;;;;;;;;;;34.49;34.69;99749.94;5014154;28;1311;-54
2023/07/24 10:09:10;;;;;;;;;;;;;;;34.61;34.12;99743.81;5031944;28;820;-55
2023/07/24 10:11:37;;;;;;;;;;;;;;;34.61;33.54;99743.81;5031846;28;790;-54
2023/07/24 10:14:04;;;;;;;;;;;;;;;34.65;33.47;99745.00;5031897;28;862;-54
2023/07/24 10:16:30;;;;;;;;;;;;;;;34.67;33.66;99738.69;5032047;28;798;-56
2023/07/24 10:18:57;;;;;;;;;;;;;;;34.68;33.32;99735.25;5031761;28;885;-56
2023/07/24 10:21:28;;;;;;;;;;;;;;;34.55;33.92;99738.28;5031753;28;1955;-56
2023/07/24 10:23:54;;;;;;;;;;;;;;;34.65;33.13;99730.63;5031727;28;897;-56
2023/07/24 10:26:30;;;;;;;;;;;;;;;34.42;33.59;99719.16;5031720;28;862;-56
2023/07/24 10:28:57;;;;;;;;;;;;;;;34.40;33.69;99723.91;5031592;28;874;-56
2023/07/24 10:31:29;;;;;;;;;;;;;;;34.51;33.80;99721.44;5031738;28;889;-57
2023/07/24 10:34:03;;;;;;;;;;;;;;;34.75;34.08;99725.84;5032162;28;818;-57
2023/07/24 10:36:32;;;;;;;;;;;;;;;34.80;33.38;99715.50;5031633;28;854;-57
2023/07/24 10:39:01;;;;;;;;;;;;;;;34.87;33.61;99711.88;5031629;28;818;-57
2023/07/24 10:41:37;;;;;;;;;;;;;;;34.93;34.26;99705.94;5031395;28;1898;-56
2023/07/24 10:44:04;;;;;;;;;;;;;;;35.12;34.48;99689.06;5032052;28;830;-57
2023/07/24 10:46:39;;;;;;;;;;;;;;;35.16;34.06;99695.22;5031680;28;1014;-56
2023/07/24 10:49:07;;;;;;;;;;;;;;;35.45;33.99;99703.53;5031410;28;907;-56
2023/07/24 10:51:37;;;;;;;;;;;;;;;35.46;33.22;99696.41;5031530;28;937;-57
2023/07/24 10:54:04;;;;;;;;;;;;;;;35.50;33.61;99688.16;5013827;28;1497;-55
2023/07/24 10:56:31;;;;;;;;;;;;;;;35.46;33.73;99684.94;5031352;28;865;-56
2023/07/24 10:59:06;;;;;;;;;;;;;;;35.60;33.46;99676.06;5032952;28;861;-56
2023/07/24 11:01:33;;;;;;;;;;;;;;;35.84;33.41;99678.25;5035155;28;1943;-56
2023/07/24 11:04:01;;;;;;;;;;;;;;;35.99;32.64;99672.41;5035246;28;1240;-57
2023/07/24 11:06:28;;;;;;;;;;;;;;;35.57;32.85;99681.66;5035210;28;1177;-57
2023/07/24 11:08:59;;;;;;;;;;;;;;;35.43;33.35;99673.84;5035216;28;794;-58
2023/07/24 11:11:32;;;;;;;;;;;;;;;35.72;33.32;99672.22;5034907;28;871;-57
2023/07/24 11:14:01;;;;;;;;;;;;;;;36.08;32.79;99673.91;5034947;28;787;-58
2023/07/24 11:16:31;;;;;;;;;;;;;;;36.22;31.93;99667.88;5034853;28;834;-58
2023/07/24 11:18:57;;;;;;;;;;;;;;;36.18;32.00;99659.66;5034814;28;893;-58
2023/07/24 11:21:24;;;;;;;;;;;;;;;36.37;31.20;99647.63;5034802;28;1957;-57
2023/07/24 11:23:54;;;;;;;;;;;;;;;37.02;30.60;99652.34;5034892;28;926;-58
2023/07/24 11:26:22;;;;;;;;;;;;;;;37.30;30.72;99653.22;5034698;28;860;-57
2023/07/24 11:28:49;;;;;;;;;;;;;;;37.53;29.69;99650.03;5016945;28;783;-58
2023/07/24 11:31:15;;;;;;;;;;;;;;;37.30;29.48;99648.22;5034970;28;897;-57
2023/07/24 11:33:43;;;;;;;;;;;;;;;37.31;30.03;99654.75;5034543;28;868;-55
2023/07/24 11:36:10;;;;;;;;;;;;;;;36.35;30.40;99651.06;5034539;28;842;-55
2023/07/24 11:38:38;;;;;;;;;;;;;;;35.49;32.07;99646.44;5016766;28;863;-57
2023/07/24 11:41:08;;;;;;;;;;;;;;;36.27;31.87;99650.38;5016598;28;1947;-57
2023/07/24 11:43:35;;;;;;;;;;;;;;;36.97;30.61;99645.50;5017464;28;823;-57
2023/07/24 11:46:02;;;;;;;;;;;;;;;37.09;31.08;99637.16;5034478;28;897;-58
2023/07/24 11:48:28;;;;;;;;;;;;;;;36.74;31.39;99642.09;5049114;28;1206;-57
2023/07/24 11:50:56;;;;;;;;;;;;;;;35.94;33.47;99641.78;5036537;28;2208;-57
2023/07/24 11:53:26;;;;;;;;;;;;;;;35.73;33.53;99636.34;5054297;28;814;-57
2023/07/24 11:55:54;;;;;;;;;;;;;;;36.68;33.78;99627.19;5054157;28;857;-56
2023/07/24 11:58:22;;;;;;;;;;;;;;;36.45;33.59;99633.16;5054140;28;809;-57
2023/07/24 12:00:51;;;;;;;;;;;;;;;35.40;35.16;99632.69;5054223;28;1914;-56
2023/07/24 12:03:21;;;;;;;;;;;;;;;34.47;36.29;99639.97;5053990;28;898;-57
2023/07/24 12:05:48;;;;;;;;;;;;;;;35.69;34.54;99633.13;5053923;28;932;-57
2023/07/24 12:08:15;;;;;;;;;;;;;;;35.52;34.23;99625.13;5053888;28;873;-56
2023/07/24 12:10:41;;;;;;;;;;;;;;;34.54;36.38;99627.72;5053327;28;860;-57
2023/07/24 12:13:09;;;;;;;;;;;;;;;33.55;38.56;99634.84;5053886;28;873;-56
2023/07/24 12:15:37;;;;;;;;;;;;;;;33.81;39.27;99630.16;5053597;28;862;-57
2023/07/24 12:18:04;;;;;;;;;;;;;;;34.67;36.83;99616.03;5053790;28;865;-57
2023/07/24 12:20:31;;;;;;;;;;;;;;;36.11;34.78;99614.44;5053551;28;1885;-57
2023/07/24 12:22:58;;;;;;;;;;;;;;;37.60;32.91;99617.50;5053611;28;886;-56
2023/07/24 12:25:24;;;;;;;;;;;;;;;38.39;31.61;99611.44;5053448;28;906;-57
2023/07/24 12:27:51;;;;;;;;;;;;;;;37.63;31.90;99610.53;5053858;28;865;-57
2023/07/24 12:30:18;;;;;;;;;;;;;;;35.86;33.92;99612.31;5053404;28;870;-57
2023/07/24 12:32:45;;;;;;;;;;;;;;;35.26;35.64;99612.06;5053461;28;818;-57
2023/07/24 12:35:12;;;;;;;;;;;;;;;36.82;33.82;99601.72;5053610;28;787;-56
2023/07/24 12:37:39;;;;;;;;;;;;;;;37.88;32.33;99600.94;5053263;28;834;-56
2023/07/24 12:40:06;;;;;;;;;;;;;;;38.28;32.06;99591.84;5053239;28;1953;-57
2023/07/24 12:42:34;;;;;;;;;;;;;;;37.97;31.79;99598.09;5053150;28;897;-57
2023/07/24 12:45:02;;;;;;;;;;;;;;;36.30;34.42;99591.66;5053165;28;842;-57
2023/07/24 12:47:30;;;;;;;;;;;;;;;36.21;35.04;99589.47;5052854;28;1325;-56
2023/07/24 12:49:57;;;;;;;;;;;;;;;37.50;33.81;99584.94;5053052;28;806;-57
2023/07/24 12:52:24;;;;;;;;;;;;;;;38.60;31.49;99587.81;5052965;28;859;-57
2023/07/24 12:54:51;;;;;;;;;;;;;;;38.83;30.94;99595.25;5052903;28;923;-58
2023/07/24 12:57:18;;;;;;;;;;;;;;;38.93;30.96;99583.72;5052909;28;881;-57
2023/07/24 12:59:45;;;;;;;;;;;;;;;39.49;30.51;99574.81;5052905;28;1899;-57
2023/07/24 13:02:12;;;;;;;;;;;;;;;40.06;29.25;99560.75;5052789;28;850;-59
2023/07/24 13:04:39;;;;;;;;;;;;;;;40.00;29.94;99569.75;5053187;28;877;-59
2023/07/24 13:07:06;;;;;;;;;;;;;;;39.53;30.34;99580.91;5052734;28;889;-58
2023/07/24 13:09:32;;;;;;;;;;;;;;;39.16;31.20;99569.56;5052713;28;850;-58
2023/07/24 13:11:59;;;;;;;;;;;;;;;39.44;30.71;99570.13;5052982;28;866;-58
2023/07/24 13:14:26;;;;;;;;;;;;;;;39.44;30.85;99569.38;5052479;28;811;-58
2023/07/24 13:16:52;;;;;;;;;;;;;;;39.12;31.25;99562.75;5052501;28;819;-57
2023/07/24 13:19:19;;;;;;;;;;;;;;;39.10;31.39;99562.59;5052778;28;842;-58
2023/07/24 13:21:47;;;;;;;;;;;;;;;39.15;31.77;99556.47;5051705;28;1963;-57
2023/07/24 13:24:13;;;;;;;;;;;;;;;39.32;31.35;99552.63;5052294;28;866;-57
2023/07/24 13:26:41;;;;;;;;;;;;;;;39.12;31.16;99554.81;5052491;28;908;-57
2023/07/24 13:29:08;;;;;;;;;;;;;;;39.00;30.93;99559.69;5052520;28;858;-58
2023/07/24 13:31:34;;;;;;;;;;;;;;;38.87;31.12;99539.94;5052690;28;814;-58
2023/07/24 13:34:02;;;;;;;;;;;;;;;38.91;31.63;99546.00;5052317;28;876;-58